LMML/MLA METAR and TAF weather

Enter ICAO airport designator
Station Type Date Time Source
LMML METAR 2021/09/20 06:15 UTC NOAA

LMML 200615Z 32005KT CAVOK 25/23 Q1016 NOSIG


Station Type Date Time Source
LMML Decoded METAR 2021/09/20 06:15 UTC NOAA

Luqa, Malta (LMML) 35-51N 014-29E 91M
Sep 20, 2021 - 02:15 AM EDT / 2021.09.20 0615 UTC
Wind: from the NW (320 degrees) at 6 MPH (5 KT):0
Visibility: greater than 7 mile(s):0
Temperature: 77 F (25 C)
Dew Point: 73 F (23 C)
Relative Humidity: 88%
Pressure (altimeter): 30.00 in. Hg (1016 hPa)
ob: LMML 200615Z 32005KT CAVOK 25/23 Q1016 NOSIG
cycle: 6

Station Type Date Time Source
LMML TAF 2021/09/20 06:47 UTC NOAA

TAF LMML 200500Z 2006/2106 29008KT 9999 FEW018
BECMG 2106/2109 05015KT

Example: see airport list